sensor_id;sensor_type;location;lat;lon;timestamp;pressure;altitude;pressure_sealevel;temperature;humidity
77939;BME280;67136;47.546;21.630;2023-02-04T00:02:21;99627.59;;;-0.30;100.00
77939;BME280;67136;47.546;21.630;2023-02-04T00:05:24;99626.28;;;-0.38;100.00
77939;BME280;67136;47.546;21.630;2023-02-04T00:08:27;99637.63;;;-0.42;100.00
77939;BME280;67136;47.546;21.630;2023-02-04T00:11:29;99632.84;;;-0.50;100.00
77939;BME280;67136;47.546;21.630;2023-02-04T00:14:32;99633.91;;;-0.54;100.00
77939;BME280;67136;47.546;21.630;2023-02-04T00:17:34;99639.34;;;-0.60;100.00
77939;BME280;67136;47.546;21.630;2023-02-04T00:20:37;99637.31;;;-0.53;100.00
77939;BME280;67136;47.546;21.630;2023-02-04T00:23:40;99643.63;;;-0.60;100.00
77939;BME280;67136;47.546;21.630;2023-02-04T00:26:42;99646.28;;;-0.62;100.00
77939;BME280;67136;47.546;21.630;2023-02-04T00:29:45;99639.09;;;-0.55;100.00
77939;BME280;67136;47.546;21.630;2023-02-04T00:32:47;99635.03;;;-0.59;100.00
77939;BME280;67136;47.546;21.630;2023-02-04T00:35:51;99631.03;;;-0.65;100.00
77939;BME280;67136;47.546;21.630;2023-02-04T00:38:55;99637.19;;;-0.69;100.00
77939;BME280;67136;47.546;21.630;2023-02-04T00:41:58;99632.00;;;-0.67;100.00
77939;BME280;67136;47.546;21.630;2023-02-04T00:45:00;99630.56;;;-0.73;100.00
77939;BME280;67136;47.546;21.630;2023-02-04T00:48:03;99626.50;;;-0.60;100.00
77939;BME280;67136;47.546;21.630;2023-02-04T00:51:05;99627.53;;;-0.64;100.00
77939;BME280;67136;47.546;21.630;2023-02-04T00:54:08;99620.44;;;-0.59;100.00
77939;BME280;67136;47.546;21.630;2023-02-04T00:57:11;99633.28;;;-0.59;100.00
77939;BME280;67136;47.546;21.630;2023-02-04T01:00:16;99638.56;;;-0.62;100.00
77939;BME280;67136;47.546;21.630;2023-02-04T01:03:19;99648.03;;;-0.62;100.00
77939;BME280;67136;47.546;21.630;2023-02-04T01:06:22;99654.59;;;-0.57;100.00
77939;BME280;67136;47.546;21.630;2023-02-04T01:09:24;99644.03;;;-0.51;100.00
77939;BME280;67136;47.546;21.630;2023-02-04T01:12:27;99639.44;;;-0.44;100.00
77939;BME280;67136;47.546;21.630;2023-02-04T01:15:30;99632.28;;;-0.21;100.00
77939;BME280;67136;47.546;21.630;2023-02-04T01:18:32;99627.28;;;-0.24;100.00
77939;BME280;67136;47.546;21.630;2023-02-04T01:21:35;99628.78;;;-0.20;100.00
77939;BME280;67136;47.546;21.630;2023-02-04T01:24:38;99640.88;;;-0.22;100.00
77939;BME280;67136;47.546;21.630;2023-02-04T01:27:55;99641.50;;;-0.34;100.00
77939;BME280;67136;47.546;21.630;2023-02-04T01:30:58;99648.44;;;-0.36;100.00
77939;BME280;67136;47.546;21.630;2023-02-04T01:34:01;99637.25;;;-0.35;100.00
77939;BME280;67136;47.546;21.630;2023-02-04T01:37:03;99633.03;;;-0.36;100.00
77939;BME280;67136;47.546;21.630;2023-02-04T01:40:07;99632.88;;;-0.33;100.00
77939;BME280;67136;47.546;21.630;2023-02-04T01:43:10;99620.94;;;-0.34;100.00
77939;BME280;67136;47.546;21.630;2023-02-04T01:46:14;99625.09;;;-0.31;100.00
77939;BME280;67136;47.546;21.630;2023-02-04T01:49:17;99633.41;;;-0.26;100.00
77939;BME280;67136;47.546;21.630;2023-02-04T01:52:20;99628.50;;;-0.31;100.00
77939;BME280;67136;47.546;21.630;2023-02-04T01:55:27;99615.81;;;-0.34;100.00
77939;BME280;67136;47.546;21.630;2023-02-04T01:58:31;99621.06;;;-0.37;100.00
77939;BME280;67136;47.546;21.630;2023-02-04T02:04:45;99614.59;;;-0.27;100.00
77939;BME280;67136;47.546;21.630;2023-02-04T02:07:49;99609.53;;;-0.28;100.00
77939;BME280;67136;47.546;21.630;2023-02-04T02:10:52;99608.41;;;-0.23;100.00
77939;BME280;67136;47.546;21.630;2023-02-04T02:13:55;99612.84;;;-0.26;100.00
77939;BME280;67136;47.546;21.630;2023-02-04T02:16:58;99597.75;;;-0.32;100.00
77939;BME280;67136;47.546;21.630;2023-02-04T02:20:01;99621.00;;;-0.35;100.00
77939;BME280;67136;47.546;21.630;2023-02-04T02:23:05;99614.97;;;-0.34;100.00
77939;BME280;67136;47.546;21.630;2023-02-04T02:26:14;99617.31;;;-0.30;100.00
77939;BME280;67136;47.546;21.630;2023-02-04T02:29:18;99620.78;;;-0.31;100.00
77939;BME280;67136;47.546;21.630;2023-02-04T02:32:20;99623.44;;;-0.32;100.00
77939;BME280;67136;47.546;21.630;2023-02-04T02:35:23;99630.22;;;-0.31;100.00
77939;BME280;67136;47.546;21.630;2023-02-04T02:38:26;99634.53;;;-0.32;100.00
77939;BME280;67136;47.546;21.630;2023-02-04T02:41:28;99624.12;;;-0.29;100.00
77939;BME280;67136;47.546;21.630;2023-02-04T02:44:31;99614.59;;;-0.27;100.00
77939;BME280;67136;47.546;21.630;2023-02-04T02:47:34;99615.50;;;-0.28;100.00
77939;BME280;67136;47.546;21.630;2023-02-04T02:50:38;99615.50;;;-0.28;100.00
77939;BME280;67136;47.546;21.630;2023-02-04T02:53:48;99620.72;;;-0.29;100.00
77939;BME280;67136;47.546;21.630;2023-02-04T02:56:50;99627.59;;;-0.30;100.00
77939;BME280;67136;47.546;21.630;2023-02-04T02:59:54;99616.53;;;-0.32;100.00
77939;BME280;67136;47.546;21.630;2023-02-04T03:06:12;99625.53;;;-0.40;100.00
77939;BME280;67136;47.546;21.630;2023-02-04T03:09:15;99621.06;;;-0.37;100.00
77939;BME280;67136;47.546;21.630;2023-02-04T03:12:21;99610.00;;;-0.37;100.00
77939;BME280;67136;47.546;21.630;2023-02-04T03:15:24;99612.66;;;-0.39;100.00
77939;BME280;67136;47.546;21.630;2023-02-04T03:18:27;99608.41;;;-0.40;100.00
77939;BME280;67136;47.546;21.630;2023-02-04T03:21:30;99606.75;;;-0.41;100.00
77939;BME280;67136;47.546;21.630;2023-02-04T03:24:34;99601.69;;;-0.42;100.00
77939;BME280;67136;47.546;21.630;2023-02-04T03:27:37;99606.22;;;-0.47;100.00
77939;BME280;67136;47.546;21.630;2023-02-04T03:30:40;99604.47;;;-0.47;100.00
77939;BME280;67136;47.546;21.630;2023-02-04T03:33:42;99606.25;;;-0.49;100.00
77939;BME280;67136;47.546;21.630;2023-02-04T03:36:45;99608.09;;;-0.51;100.00
77939;BME280;67136;47.546;21.630;2023-02-04T03:39:48;99605.53;;;-0.51;100.00
77939;BME280;67136;47.546;21.630;2023-02-04T03:42:50;99602.13;;;-0.51;100.00
77939;BME280;67136;47.546;21.630;2023-02-04T03:45:53;99609.75;;;-0.50;100.00
77939;BME280;67136;47.546;21.630;2023-02-04T03:48:56;99607.94;;;-0.48;100.00
77939;BME280;67136;47.546;21.630;2023-02-04T03:51:58;99603.69;;;-0.49;100.00
77939;BME280;67136;47.546;21.630;2023-02-04T03:55:01;99593.44;;;-0.49;100.00
77939;BME280;67136;47.546;21.630;2023-02-04T03:58:04;99585.59;;;-0.46;100.00
77939;BME280;67136;47.546;21.630;2023-02-04T04:01:07;99566.72;;;-0.45;100.00
77939;BME280;67136;47.546;21.630;2023-02-04T04:04:09;99576.06;;;-0.44;100.00
77939;BME280;67136;47.546;21.630;2023-02-04T04:07:12;99581.44;;;-0.48;100.00
77939;BME280;67136;47.546;21.630;2023-02-04T04:10:15;99584.91;;;-0.49;100.00
77939;BME280;67136;47.546;21.630;2023-02-04T04:13:17;99578.94;;;-0.50;100.00
77939;BME280;67136;47.546;21.630;2023-02-04T04:16:20;99573.81;;;-0.50;100.00
77939;BME280;67136;47.546;21.630;2023-02-04T04:19:23;99573.06;;;-0.52;100.00
77939;BME280;67136;47.546;21.630;2023-02-04T04:22:26;99595.88;;;-0.46;100.00
77939;BME280;67136;47.546;21.630;2023-02-04T04:25:29;99593.00;;;-0.40;100.00
77939;BME280;67136;47.546;21.630;2023-02-04T04:28:31;99586.50;;;-0.47;100.00
77939;BME280;67136;47.546;21.630;2023-02-04T04:31:34;99584.00;;;-0.48;100.00
77939;BME280;67136;47.546;21.630;2023-02-04T04:34:37;99578.94;;;-0.50;100.00
77939;BME280;67136;47.546;21.630;2023-02-04T04:37:39;99567.03;;;-0.51;100.00
77939;BME280;67136;47.546;21.630;2023-02-04T04:40:42;99566.87;;;-0.48;100.00
77939;BME280;67136;47.546;21.630;2023-02-04T04:43:45;99561.06;;;-0.51;100.00
77939;BME280;67136;47.546;21.630;2023-02-04T04:46:47;99560.38;;;-0.55;100.00
77939;BME280;67136;47.546;21.630;2023-02-04T04:49:50;99556.06;;;-0.54;100.00
77939;BME280;67136;47.546;21.630;2023-02-04T04:52:53;99565.59;;;-0.56;100.00
77939;BME280;67136;47.546;21.630;2023-02-04T04:55:55;99573.34;;;-0.58;100.00
77939;BME280;67136;47.546;21.630;2023-02-04T04:58:58;99570.78;;;-0.58;100.00
77939;BME280;67136;47.546;21.630;2023-02-04T05:02:00;99573.44;;;-0.59;100.00
77939;BME280;67136;47.546;21.630;2023-02-04T05:05:03;99570.41;;;-0.50;100.00
77939;BME280;67136;47.546;21.630;2023-02-04T05:08:06;99570.31;;;-0.49;100.00
77939;BME280;67136;47.546;21.630;2023-02-04T05:11:14;99575.47;;;-0.49;100.00
77939;BME280;67136;47.546;21.630;2023-02-04T05:14:17;99562.50;;;-0.46;100.00
77939;BME280;67136;47.546;21.630;2023-02-04T05:17:19;99561.41;;;-0.42;100.00
77939;BME280;67136;47.546;21.630;2023-02-04T05:20:22;99570.03;;;-0.43;100.00
77939;BME280;67136;47.546;21.630;2023-02-04T05:23:25;99585.59;;;-0.46;100.00
77939;BME280;67136;47.546;21.630;2023-02-04T05:26:27;99581.97;;;-0.42;100.00
77939;BME280;67136;47.546;21.630;2023-02-04T05:29:32;99579.88;;;-0.34;100.00
77939;BME280;67136;47.546;21.630;2023-02-04T05:32:35;99569.13;;;-0.25;100.00
77939;BME280;67136;47.546;21.630;2023-02-04T05:35:38;99572.75;;;-0.29;100.00
77939;BME280;67136;47.546;21.630;2023-02-04T05:38:40;99563.97;;;-0.25;100.00
77939;BME280;67136;47.546;21.630;2023-02-04T05:41:43;99560.72;;;-0.11;100.00
77939;BME280;67136;47.546;21.630;2023-02-04T05:44:46;99559.75;;;-0.09;100.00
77939;BME280;67136;47.546;21.630;2023-02-04T05:47:48;99569.25;;;-0.11;100.00
77939;BME280;67136;47.546;21.630;2023-02-04T05:50:51;99566.84;;;-0.14;100.00
77939;BME280;67136;47.546;21.630;2023-02-04T05:53:54;99558.91;;;-0.09;100.00
77939;BME280;67136;47.546;21.630;2023-02-04T05:56:56;99566.69;;;-0.11;100.00
77939;BME280;67136;47.546;21.630;2023-02-04T05:59:59;99571.50;;;-0.05;100.00
77939;BME280;67136;47.546;21.630;2023-02-04T06:03:01;99568.34;;;-0.10;100.00
77939;BME280;67136;47.546;21.630;2023-02-04T06:06:04;99571.34;;;-0.02;100.00
77939;BME280;67136;47.546;21.630;2023-02-04T06:09:07;99568.72;;;0.00;100.00
77939;BME280;67136;47.546;21.630;2023-02-04T06:12:09;99572.84;;;0.03;100.00
77939;BME280;67136;47.546;21.630;2023-02-04T06:15:12;99580.41;;;0.06;100.00
77939;BME280;67136;47.546;21.630;2023-02-04T06:18:15;99567.88;;;-0.01;100.00
77939;BME280;67136;47.546;21.630;2023-02-04T06:21:18;99584.78;;;0.03;99.97
77939;BME280;67136;47.546;21.630;2023-02-04T06:24:20;99583.31;;;-0.01;99.93
77939;BME280;67136;47.546;21.630;2023-02-04T06:27:23;99593.34;;;0.04;99.69
77939;BME280;67136;47.546;21.630;2023-02-04T06:30:26;99587.22;;;0.07;99.66
77939;BME280;67136;47.546;21.630;2023-02-04T06:33:28;99598.09;;;0.12;99.55
77939;BME280;67136;47.546;21.630;2023-02-04T06:36:31;99598.81;;;0.14;99.43
77939;BME280;67136;47.546;21.630;2023-02-04T06:39:34;99599.41;;;0.19;98.97
77939;BME280;67136;47.546;21.630;2023-02-04T06:42:36;99595.03;;;0.21;98.83
77939;BME280;67136;47.546;21.630;2023-02-04T06:45:39;99600.94;;;0.23;98.88
77939;BME280;67136;47.546;21.630;2023-02-04T06:48:41;99593.97;;;0.25;98.69
77939;BME280;67136;47.546;21.630;2023-02-04T06:51:44;99592.97;;;0.27;98.91
77939;BME280;67136;47.546;21.630;2023-02-04T06:54:46;99589.09;;;0.36;98.93
77939;BME280;67136;47.546;21.630;2023-02-04T06:57:49;99591.38;;;0.42;99.15
77939;BME280;67136;47.546;21.630;2023-02-04T07:00:51;99592.03;;;0.45;99.32
77939;BME280;67136;47.546;21.630;2023-02-04T07:03:54;99592.72;;;0.49;99.34
77939;BME280;67136;47.546;21.630;2023-02-04T07:06:57;99602.00;;;0.51;99.50
77939;BME280;67136;47.546;21.630;2023-02-04T07:09:59;99605.41;;;0.52;99.66
77939;BME280;67136;47.546;21.630;2023-02-04T07:13:02;99605.31;;;0.53;99.52
77939;BME280;67136;47.546;21.630;2023-02-04T07:16:05;99607.81;;;0.55;98.90
77939;BME280;67136;47.546;21.630;2023-02-04T07:19:08;99606.00;;;0.57;99.18
77939;BME280;67136;47.546;21.630;2023-02-04T07:22:11;99617.66;;;0.62;99.32
77939;BME280;67136;47.546;21.630;2023-02-04T07:25:14;99621.66;;;0.68;99.29
77939;BME280;67136;47.546;21.630;2023-02-04T07:28:17;99628.41;;;0.70;99.17
77939;BME280;67136;47.546;21.630;2023-02-04T07:31:20;99629.13;;;0.72;99.18
77939;BME280;67136;47.546;21.630;2023-02-04T07:34:22;99622.09;;;0.76;99.06
77939;BME280;67136;47.546;21.630;2023-02-04T07:37:25;99619.78;;;0.87;99.19
77939;BME280;67136;47.546;21.630;2023-02-04T07:40:28;99627.75;;;0.98;98.95
77939;BME280;67136;47.546;21.630;2023-02-04T07:43:31;99634.41;;;1.02;98.63
77939;BME280;67136;47.546;21.630;2023-02-04T07:46:33;99637.38;;;1.10;98.72
77939;BME280;67136;47.546;21.630;2023-02-04T07:49:36;99645.59;;;1.16;98.73
77939;BME280;67136;47.546;21.630;2023-02-04T07:52:38;99650.81;;;1.15;98.69
77939;BME280;67136;47.546;21.630;2023-02-04T07:55:41;99658.37;;;1.18;98.79
77939;BME280;67136;47.546;21.630;2023-02-04T07:58:44;99661.97;;;1.15;98.58
77939;BME280;67136;47.546;21.630;2023-02-04T08:01:47;99669.91;;;1.11;98.31
77939;BME280;67136;47.546;21.630;2023-02-04T08:04:51;99673.06;;;1.16;98.37
77939;BME280;67136;47.546;21.630;2023-02-04T08:07:53;99679.97;;;1.15;98.36
77939;BME280;67136;47.546;21.630;2023-02-04T08:10:56;99681.72;;;1.15;98.21
77939;BME280;67136;47.546;21.630;2023-02-04T08:13:59;99685.03;;;1.17;98.21
77939;BME280;67136;47.546;21.630;2023-02-04T08:17:02;99686.53;;;1.21;98.10
77939;BME280;67136;47.546;21.630;2023-02-04T08:20:05;99688.19;;;1.22;98.24
77939;BME280;67136;47.546;21.630;2023-02-04T08:23:08;99691.34;;;1.27;98.21
77939;BME280;67136;47.546;21.630;2023-02-04T08:26:11;99704.16;;;1.28;98.04
77939;BME280;67136;47.546;21.630;2023-02-04T08:29:14;99713.78;;;1.25;97.81
77939;BME280;67136;47.546;21.630;2023-02-04T08:32:16;99721.78;;;1.36;97.77
77939;BME280;67136;47.546;21.630;2023-02-04T08:35:19;99726.56;;;1.42;97.48
77939;BME280;67136;47.546;21.630;2023-02-04T08:38:21;99735.72;;;1.48;97.34
77939;BME280;67136;47.546;21.630;2023-02-04T08:41:24;99749.00;;;1.40;97.36
77939;BME280;67136;47.546;21.630;2023-02-04T08:44:27;99740.84;;;1.32;97.41
77939;BME280;67136;47.546;21.630;2023-02-04T08:47:29;99748.91;;;1.42;97.44
77939;BME280;67136;47.546;21.630;2023-02-04T08:50:32;99746.34;;;1.57;97.12
77939;BME280;67136;47.546;21.630;2023-02-04T08:53:35;99754.66;;;1.62;96.98
77939;BME280;67136;47.546;21.630;2023-02-04T08:56:38;99748.66;;;1.77;96.84
77939;BME280;67136;47.546;21.630;2023-02-04T08:59:41;99751.31;;;1.91;96.27
77939;BME280;67136;47.546;21.630;2023-02-04T09:02:43;99757.50;;;2.18;96.55
77939;BME280;67136;47.546;21.630;2023-02-04T09:05:46;99770.19;;;2.21;96.10
77939;BME280;67136;47.546;21.630;2023-02-04T09:08:49;99782.34;;;2.19;95.54
77939;BME280;67136;47.546;21.630;2023-02-04T09:11:51;99790.16;;;2.18;95.35
77939;BME280;67136;47.546;21.630;2023-02-04T09:14:54;99798.56;;;2.21;95.30
77939;BME280;67136;47.546;21.630;2023-02-04T09:17:56;99807.12;;;2.22;95.08
77939;BME280;67136;47.546;21.630;2023-02-04T09:21:06;99814.94;;;2.20;94.90
77939;BME280;67136;47.546;21.630;2023-02-04T09:24:08;99816.94;;;2.15;94.92
77939;BME280;67136;47.546;21.630;2023-02-04T09:27:11;99827.13;;;2.18;95.13
77939;BME280;67136;47.546;21.630;2023-02-04T09:30:14;99833.84;;;2.05;94.37
77939;BME280;67136;47.546;21.630;2023-02-04T09:33:16;99841.94;;;1.99;93.72
77939;BME280;67136;47.546;21.630;2023-02-04T09:36:19;99861.13;;;2.09;93.01
77939;BME280;67136;47.546;21.630;2023-02-04T09:39:22;99868.50;;;2.31;92.11
77939;BME280;67136;47.546;21.630;2023-02-04T09:42:25;99879.22;;;2.39;90.23
77939;BME280;67136;47.546;21.630;2023-02-04T09:45:29;99868.50;;;2.46;89.65
77939;BME280;67136;47.546;21.630;2023-02-04T09:48:34;99892.88;;;2.71;88.90
77939;BME280;67136;47.546;21.630;2023-02-04T09:51:36;99894.22;;;2.78;86.27
77939;BME280;67136;47.546;21.630;2023-02-04T09:54:39;99891.50;;;2.95;86.61
77939;BME280;67136;47.546;21.630;2023-02-04T09:57:41;99895.09;;;2.92;83.08
77939;BME280;67136;47.546;21.630;2023-02-04T10:00:55;99900.94;;;3.10;83.27
77939;BME280;67136;47.546;21.630;2023-02-04T10:04:00;99906.50;;;3.32;82.27
77939;BME280;67136;47.546;21.630;2023-02-04T10:07:09;99925.03;;;3.24;81.26
77939;BME280;67136;47.546;21.630;2023-02-04T10:10:18;99925.41;;;3.18;80.98
77939;BME280;67136;47.546;21.630;2023-02-04T10:13:32;99918.34;;;3.36;78.20
77939;BME280;67136;47.546;21.630;2023-02-04T10:16:36;99920.16;;;4.04;79.18
77939;BME280;67136;47.546;21.630;2023-02-04T10:19:43;99927.28;;;3.87;77.24
77939;BME280;67136;47.546;21.630;2023-02-04T10:22:47;99920.84;;;4.34;74.60
77939;BME280;67136;47.546;21.630;2023-02-04T10:25:51;99927.72;;;4.21;72.42
77939;BME280;67136;47.546;21.630;2023-02-04T10:32:00;99946.91;;;4.31;71.20
77939;BME280;67136;47.546;21.630;2023-02-04T10:35:03;99947.09;;;4.95;70.25
77939;BME280;67136;47.546;21.630;2023-02-04T10:38:06;99939.06;;;4.59;71.12
77939;BME280;67136;47.546;21.630;2023-02-04T10:41:12;99951.16;;;5.25;68.40
77939;BME280;67136;47.546;21.630;2023-02-04T10:44:17;99966.25;;;5.57;67.21
77939;BME280;67136;47.546;21.630;2023-02-04T10:50:25;99993.09;;;5.56;67.35
77939;BME280;67136;47.546;21.630;2023-02-04T10:53:28;99996.84;;;5.77;68.10
77939;BME280;67136;47.546;21.630;2023-02-04T10:56:49;99996.13;;;5.75;66.17
77939;BME280;67136;47.546;21.630;2023-02-04T11:00:00;99996.34;;;6.22;66.57
77939;BME280;67136;47.546;21.630;2023-02-04T11:03:26;100002.16;;;5.76;67.64
77939;BME280;67136;47.546;21.630;2023-02-04T11:06:29;100014.69;;;5.57;66.47
77939;BME280;67136;47.546;21.630;2023-02-04T11:09:32;100015.94;;;5.12;66.85
77939;BME280;67136;47.546;21.630;2023-02-04T11:12:40;100017.28;;;4.64;68.13
77939;BME280;67136;47.546;21.630;2023-02-04T11:15:46;100030.19;;;4.38;68.88
77939;BME280;67136;47.546;21.630;2023-02-04T11:22:18;100045.47;;;3.70;69.36
77939;BME280;67136;47.546;21.630;2023-02-04T11:25:34;100065.16;;;3.43;71.30
77939;BME280;67136;47.546;21.630;2023-02-04T11:31:55;100067.94;;;3.84;71.09
77939;BME280;67136;47.546;21.630;2023-02-04T11:38:23;100097.87;;;3.13;71.47
77939;BME280;67136;47.546;21.630;2023-02-04T11:41:28;100110.53;;;3.18;71.39
77939;BME280;67136;47.546;21.630;2023-02-04T11:44:32;100092.06;;;3.10;71.49
77939;BME280;67136;47.546;21.630;2023-02-04T11:47:35;100116.38;;;2.75;70.78
77939;BME280;67136;47.546;21.630;2023-02-04T11:50:38;100130.06;;;2.92;72.52
77939;BME280;67136;47.546;21.630;2023-02-04T11:53:43;100144.53;;;2.95;71.12
77939;BME280;67136;47.546;21.630;2023-02-04T11:56:45;100144.03;;;2.88;72.11
77939;BME280;67136;47.546;21.630;2023-02-04T11:59:48;100163.69;;;2.75;70.81
77939;BME280;67136;47.546;21.630;2023-02-04T12:02:56;100190.56;;;2.71;71.98
77939;BME280;67136;47.546;21.630;2023-02-04T12:06:00;100190.19;;;2.62;71.76
77939;BME280;67136;47.546;21.630;2023-02-04T12:12:27;100181.50;;;2.80;70.94
77939;BME280;67136;47.546;21.630;2023-02-04T12:15:34;100223.75;;;2.62;70.69
77939;BME280;67136;47.546;21.630;2023-02-04T12:18:38;100202.91;;;2.82;71.41
77939;BME280;67136;47.546;21.630;2023-02-04T12:21:40;100219.63;;;2.75;70.65
77939;BME280;67136;47.546;21.630;2023-02-04T12:24:43;100204.13;;;2.75;70.72
77939;BME280;67136;47.546;21.630;2023-02-04T12:27:46;100235.88;;;2.77;68.72
77939;BME280;67136;47.546;21.630;2023-02-04T12:30:48;100255.66;;;2.93;68.74
77939;BME280;67136;47.546;21.630;2023-02-04T12:33:51;100253.31;;;2.89;69.37
77939;BME280;67136;47.546;21.630;2023-02-04T12:36:55;100267.37;;;3.16;69.43
77939;BME280;67136;47.546;21.630;2023-02-04T12:39:58;100262.12;;;2.85;69.46
77939;BME280;67136;47.546;21.630;2023-02-04T12:43:00;100256.59;;;2.75;69.09
77939;BME280;67136;47.546;21.630;2023-02-04T12:46:03;100242.19;;;2.37;68.14
77939;BME280;67136;47.546;21.630;2023-02-04T12:49:06;100295.84;;;2.47;68.33
77939;BME280;67136;47.546;21.630;2023-02-04T12:52:10;100290.53;;;2.68;67.93
77939;BME280;67136;47.546;21.630;2023-02-04T12:55:13;100334.81;;;2.60;68.31
77939;BME280;67136;47.546;21.630;2023-02-04T12:58:16;100335.87;;;3.23;66.50
77939;BME280;67136;47.546;21.630;2023-02-04T13:01:18;100335.59;;;3.44;64.91
77939;BME280;67136;47.546;21.630;2023-02-04T13:04:21;100336.44;;;4.07;63.76
77939;BME280;67136;47.546;21.630;2023-02-04T13:07:24;100364.84;;;5.27;62.67
77939;BME280;67136;47.546;21.630;2023-02-04T13:10:26;100355.13;;;5.45;58.97
77939;BME280;67136;47.546;21.630;2023-02-04T13:13:29;100368.22;;;6.12;56.44
77939;BME280;67136;47.546;21.630;2023-02-04T13:16:31;100401.88;;;6.54;54.74
77939;BME280;67136;47.546;21.630;2023-02-04T13:19:35;100394.97;;;5.86;55.88
77939;BME280;67136;47.546;21.630;2023-02-04T13:22:37;100427.75;;;5.73;56.05
77939;BME280;67136;47.546;21.630;2023-02-04T13:25:40;100413.41;;;3.88;60.14
77939;BME280;67136;47.546;21.630;2023-02-04T13:28:42;100436.50;;;3.58;60.12
77939;BME280;67136;47.546;21.630;2023-02-04T13:31:45;100455.28;;;3.62;59.84
77939;BME280;67136;47.546;21.630;2023-02-04T13:34:48;100465.81;;;4.23;59.81
77939;BME280;67136;47.546;21.630;2023-02-04T13:37:50;100465.41;;;5.06;59.15
77939;BME280;67136;47.546;21.630;2023-02-04T13:40:53;100461.94;;;5.22;55.12
77939;BME280;67136;47.546;21.630;2023-02-04T13:43:56;100465.78;;;5.00;57.13
77939;BME280;67136;47.546;21.630;2023-02-04T13:46:59;100481.44;;;5.13;57.43
77939;BME280;67136;47.546;21.630;2023-02-04T13:50:02;100490.44;;;4.14;57.77
77939;BME280;67136;47.546;21.630;2023-02-04T13:53:05;100496.19;;;3.37;58.50
77939;BME280;67136;47.546;21.630;2023-02-04T13:56:08;100513.66;;;2.62;59.95
77939;BME280;67136;47.546;21.630;2023-02-04T13:59:10;100520.06;;;2.35;63.04
77939;BME280;67136;47.546;21.630;2023-02-04T14:02:13;100528.56;;;2.55;62.47
77939;BME280;67136;47.546;21.630;2023-02-04T14:05:16;100522.00;;;4.21;57.38
77939;BME280;67136;47.546;21.630;2023-02-04T14:08:19;100533.47;;;4.48;57.34
77939;BME280;67136;47.546;21.630;2023-02-04T14:11:22;100553.66;;;4.26;55.63
77939;BME280;67136;47.546;21.630;2023-02-04T14:14:25;100558.75;;;4.27;56.18
77939;BME280;67136;47.546;21.630;2023-02-04T14:17:27;100565.34;;;4.33;56.36
77939;BME280;67136;47.546;21.630;2023-02-04T14:20:30;100585.81;;;3.36;59.70
77939;BME280;67136;47.546;21.630;2023-02-04T14:23:33;100600.56;;;2.62;60.56
77939;BME280;67136;47.546;21.630;2023-02-04T14:26:35;100592.63;;;2.27;61.78
77939;BME280;67136;47.546;21.630;2023-02-04T14:29:38;100604.78;;;2.05;63.61
77939;BME280;67136;47.546;21.630;2023-02-04T14:32:40;100610.72;;;1.87;63.97
77939;BME280;67136;47.546;21.630;2023-02-04T14:35:43;100629.91;;;1.80;64.21
77939;BME280;67136;47.546;21.630;2023-02-04T14:38:46;100648.19;;;1.54;63.39
77939;BME280;67136;47.546;21.630;2023-02-04T14:41:48;100638.53;;;1.59;62.32
77939;BME280;67136;47.546;21.630;2023-02-04T14:44:51;100661.88;;;1.33;62.90
77939;BME280;67136;47.546;21.630;2023-02-04T14:47:54;100660.03;;;1.37;62.81
77939;BME280;67136;47.546;21.630;2023-02-04T14:50:58;100675.97;;;1.68;62.87
77939;BME280;67136;47.546;21.630;2023-02-04T14:54:01;100652.84;;;1.66;63.24
77939;BME280;67136;47.546;21.630;2023-02-04T14:57:03;100690.72;;;1.64;61.69
77939;BME280;67136;47.546;21.630;2023-02-04T15:00:07;100705.66;;;1.56;61.90
77939;BME280;67136;47.546;21.630;2023-02-04T15:03:09;100710.25;;;1.91;63.14
77939;BME280;67136;47.546;21.630;2023-02-04T15:06:12;100718.75;;;1.50;61.09
77939;BME280;67136;47.546;21.630;2023-02-04T15:09:14;100727.72;;;1.40;61.74
77939;BME280;67136;47.546;21.630;2023-02-04T15:12:17;100731.16;;;1.41;61.25
77939;BME280;67136;47.546;21.630;2023-02-04T15:15:20;100755.41;;;1.57;61.44
77939;BME280;67136;47.546;21.630;2023-02-04T15:18:22;100755.59;;;1.07;59.94
77939;BME280;67136;47.546;21.630;2023-02-04T15:21:25;100755.41;;;0.89;62.19
77939;BME280;67136;47.546;21.630;2023-02-04T15:24:28;100770.66;;;0.70;63.55
77939;BME280;67136;47.546;21.630;2023-02-04T15:27:31;100778.22;;;0.50;62.84
77939;BME280;67136;47.546;21.630;2023-02-04T15:30:34;100789.03;;;0.35;63.30
77939;BME280;67136;47.546;21.630;2023-02-04T15:33:37;100805.47;;;0.30;65.11
77939;BME280;67136;47.546;21.630;2023-02-04T15:36:40;100823.37;;;0.07;63.60
77939;BME280;67136;47.546;21.630;2023-02-04T15:39:42;100828.88;;;-0.06;64.29
77939;BME280;67136;47.546;21.630;2023-02-04T15:42:45;100833.09;;;-0.31;65.09
77939;BME280;67136;47.546;21.630;2023-02-04T15:45:47;100836.72;;;-0.38;67.53
77939;BME280;67136;47.546;21.630;2023-02-04T15:48:52;100853.53;;;-0.28;67.21
77939;BME280;67136;47.546;21.630;2023-02-04T15:51:55;100851.06;;;-0.31;65.83
77939;BME280;67136;47.546;21.630;2023-02-04T15:54:59;100876.19;;;-0.42;65.38
77939;BME280;67136;47.546;21.630;2023-02-04T15:58:01;100878.78;;;-0.42;66.76
77939;BME280;67136;47.546;21.630;2023-02-04T16:01:04;100901.63;;;-0.33;67.57
77939;BME280;67136;47.546;21.630;2023-02-04T16:04:07;100900.03;;;-0.37;66.36
77939;BME280;67136;47.546;21.630;2023-02-04T16:07:10;100902.22;;;-0.54;66.22
77939;BME280;67136;47.546;21.630;2023-02-04T16:10:14;100900.38;;;-0.49;67.79
77939;BME280;67136;47.546;21.630;2023-02-04T16:13:19;100922.84;;;-0.57;68.49
77939;BME280;67136;47.546;21.630;2023-02-04T16:16:22;100941.34;;;-0.44;69.08
77939;BME280;67136;47.546;21.630;2023-02-04T16:19:25;100948.16;;;-0.75;66.67
77939;BME280;67136;47.546;21.630;2023-02-04T16:22:28;100959.84;;;-0.62;70.17